createdAt,value
2016-04-26T00:00:37.687Z,0
2016-04-26T00:01:38.315Z,0
2016-04-26T00:02:37.645Z,0
2016-04-26T00:03:37.633Z,0
2016-04-26T00:04:37.589Z,0
2016-04-26T00:05:37.580Z,0
2016-04-26T00:06:37.567Z,0
2016-04-26T00:07:37.570Z,0
2016-04-26T00:08:37.525Z,0
2016-04-26T00:09:36.762Z,0
2016-04-26T00:10:37.499Z,0
2016-04-26T00:11:37.470Z,0
2016-04-26T00:12:37.458Z,0
2016-04-26T00:13:37.445Z,0
2016-04-26T00:14:37.417Z,0
2016-04-26T00:15:37.387Z,0
2016-04-26T00:16:39.359Z,0
2016-04-26T00:17:37.550Z,0
2016-04-26T00:18:37.350Z,0
2016-04-26T00:19:37.305Z,0
2016-04-26T00:20:37.276Z,0
2016-04-26T00:21:37.263Z,0
2016-04-26T00:22:37.266Z,0
2016-04-26T00:23:37.222Z,0
2016-04-26T00:24:37.053Z,0
2016-04-26T00:25:37.180Z,0
2016-04-26T00:26:37.167Z,0
2016-04-26T00:27:37.155Z,0
2016-04-26T00:28:37.126Z,0
2016-04-26T00:29:36.379Z,0
2016-04-26T00:30:37.100Z,0
2016-04-26T00:31:37.963Z,0
2016-04-26T00:32:37.043Z,0
2016-04-26T00:33:37.030Z,0
2016-04-26T00:34:37.017Z,0
2016-04-26T00:35:37.004Z,0
2016-04-26T00:36:36.960Z,0
2016-04-26T00:37:36.947Z,0
2016-04-26T00:38:36.949Z,0
2016-04-26T00:39:36.906Z,0
2016-04-26T00:40:36.893Z,0
2016-04-26T00:41:36.848Z,0
2016-04-26T00:42:36.835Z,0
2016-04-26T00:43:36.806Z,0
2016-04-26T00:44:36.809Z,0
2016-04-26T00:45:36.797Z,0
2016-04-26T00:46:37.486Z,0
2016-04-26T00:47:36.756Z,0
2016-04-26T00:48:36.726Z,0
2016-04-26T00:49:36.697Z,0
2016-04-26T00:50:36.670Z,0
2016-04-26T00:51:36.656Z,0
2016-04-26T00:52:36.644Z,0
2016-04-26T00:53:36.631Z,0
2016-04-26T00:54:36.617Z,0
2016-04-26T00:55:36.574Z,0
2016-04-26T00:56:36.544Z,0
2016-04-26T00:57:36.516Z,0
2016-04-26T00:58:36.519Z,0
2016-04-26T00:59:36.491Z,0
2016-04-26T01:00:36.477Z,0
2016-04-26T01:01:36.355Z,0
2016-04-26T01:02:36.420Z,0
2016-04-26T01:03:36.408Z,0
2016-04-26T01:04:36.380Z,0
2016-04-26T01:05:36.382Z,0
2016-04-26T01:06:36.338Z,0
2016-04-26T01:07:36.340Z,0
2016-04-26T01:08:36.343Z,0
2016-04-26T01:09:36.517Z,0
2016-04-26T01:10:36.271Z,0
2016-04-26T01:11:36.242Z,0
2016-04-26T01:12:36.447Z,0
2016-04-26T01:13:36.201Z,0
2016-04-26T01:14:36.187Z,0
2016-04-26T01:15:36.190Z,0
2016-04-26T01:16:36.021Z,0
2016-04-26T01:17:37.758Z,0
2016-04-26T01:18:36.104Z,0
2016-04-26T01:19:36.076Z,0
2016-04-26T01:20:36.047Z,0
2016-04-26T01:21:36.033Z,0
2016-04-26T01:22:36.053Z,0
2016-04-26T01:23:36.008Z,0
2016-04-26T01:24:35.980Z,0
2016-04-26T01:25:35.951Z,0
2016-04-26T01:26:35.938Z,0
2016-04-26T01:27:35.910Z,0
2016-04-26T01:28:35.881Z,0
2016-04-26T01:29:35.869Z,0
2016-04-26T01:30:35.871Z,0
2016-04-26T01:31:36.655Z,0
2016-04-26T01:32:35.813Z,0
2016-04-26T01:33:35.785Z,0
2016-04-26T01:34:35.772Z,0
2016-04-26T01:35:35.947Z,0
2016-04-26T01:36:35.730Z,0
2016-04-26T01:37:35.733Z,0
2016-04-26T01:38:35.687Z,0
2016-04-26T01:39:35.502Z,0
2016-04-26T01:40:35.646Z,0
2016-04-26T01:41:35.632Z,0
2016-04-26T01:42:35.603Z,0
2016-04-26T01:43:35.576Z,0
2016-04-26T01:44:35.562Z,0
2016-04-26T01:45:35.549Z,0
2016-04-26T01:46:35.520Z,0
2016-04-26T01:47:35.368Z,0
2016-04-26T01:48:35.479Z,0
2016-04-26T01:49:35.450Z,0
2016-04-26T01:50:35.437Z,0
2016-04-26T01:51:35.425Z,0
2016-04-26T01:52:35.395Z,0
2016-04-26T01:53:35.384Z,0
2016-04-26T01:54:35.339Z,0
2016-04-26T01:55:35.325Z,0
2016-04-26T01:56:35.314Z,0
2016-04-26T01:57:35.284Z,0
2016-04-26T01:58:35.271Z,0
2016-04-26T01:59:35.244Z,0
2016-04-26T02:00:35.230Z,0
2016-04-26T02:01:35.702Z,0
2016-04-26T02:02:35.017Z,0
2016-04-26T02:03:35.160Z,0
2016-04-26T02:04:35.147Z,0
2016-04-26T02:05:35.119Z,0
2016-04-26T02:06:35.105Z,0
2016-04-26T02:07:35.094Z,0
2016-04-26T02:08:35.049Z,0
2016-04-26T02:09:35.035Z,0
2016-04-26T02:10:35.024Z,0
2016-04-26T02:11:35.010Z,0
2016-04-26T02:12:34.996Z,0
2016-04-26T02:13:34.952Z,0
2016-04-26T02:14:34.987Z,0
2016-04-26T02:15:34.911Z,0
2016-04-26T02:16:34.929Z,0
2016-04-26T02:17:36.901Z,0
2016-04-26T02:18:34.873Z,0
2016-04-26T02:19:34.843Z,0
2016-04-26T02:20:34.846Z,0
2016-04-26T02:21:34.803Z,0
2016-04-26T02:22:34.451Z,0
2016-04-26T02:23:34.736Z,0
2016-04-26T02:24:34.724Z,0
2016-04-26T02:25:34.695Z,0
2016-04-26T02:26:34.682Z,0
2016-04-26T02:27:34.669Z,0
2016-04-26T02:28:34.672Z,0
2016-04-26T02:29:34.627Z,0
2016-04-26T02:30:34.599Z,0
2016-04-26T02:31:34.445Z,0
2016-04-26T02:32:34.761Z,0
2016-04-26T02:33:34.529Z,0
2016-04-26T02:34:34.547Z,0
2016-04-26T02:35:34.487Z,0
2016-04-26T02:36:34.474Z,0
2016-04-26T02:37:34.446Z,0
2016-04-26T02:38:34.417Z,0
2016-04-26T02:39:34.421Z,0
2016-04-26T02:40:34.392Z,0
2016-04-26T02:41:34.379Z,0
2016-04-26T02:42:34.350Z,0
2016-04-26T02:43:34.321Z,0
2016-04-26T02:44:34.309Z,0
2016-04-26T02:45:34.296Z,0
2016-04-26T02:46:34.939Z,0
2016-04-26T02:47:34.816Z,0
2016-04-26T02:48:34.226Z,0
2016-04-26T02:49:34.213Z,0
2016-04-26T02:50:34.183Z,0
2016-04-26T02:51:34.155Z,0
2016-04-26T02:52:34.190Z,0
2016-04-26T02:53:34.130Z,0
2016-04-26T02:54:34.101Z,0
2016-04-26T02:55:34.073Z,0
2016-04-26T02:56:34.059Z,0
2016-04-26T02:57:34.031Z,0
2016-04-26T02:58:34.018Z,0
2016-04-26T02:59:33.990Z,0
2016-04-26T03:00:33.993Z,0
2016-04-26T03:01:33.964Z,0
2016-04-26T03:02:34.123Z,0
2016-04-26T03:03:33.921Z,0
2016-04-26T03:04:33.894Z,0
2016-04-26T03:05:33.865Z,0
2016-04-26T03:06:33.946Z,0
2016-04-26T03:07:33.839Z,0
2016-04-26T03:08:33.826Z,0
2016-04-26T03:09:33.767Z,0
2016-04-26T03:10:33.784Z,0
2016-04-26T03:11:33.756Z,0
2016-04-26T03:12:33.790Z,0
2016-04-26T03:13:33.543Z,0
2016-04-26T03:14:33.686Z,0
2016-04-26T03:15:33.658Z,0
2016-04-26T03:16:33.628Z,0
2016-04-26T03:17:34.290Z,0
2016-04-26T03:18:33.588Z,0
2016-04-26T03:19:33.576Z,0
2016-04-26T03:20:33.562Z,0
2016-04-26T03:21:33.534Z,0
2016-04-26T03:22:33.506Z,0
2016-04-26T03:23:33.492Z,0
2016-04-26T03:24:33.479Z,0
2016-04-26T03:25:33.451Z,0
2016-04-26T03:26:33.439Z,0
2016-04-26T03:27:33.409Z,0
2016-04-26T03:28:33.412Z,0
2016-04-26T03:29:33.368Z,0
2016-04-26T03:30:33.339Z,0
2016-04-26T03:31:33.498Z,0
2016-04-26T03:32:33.533Z,0
2016-04-26T03:33:33.300Z,0
2016-04-26T03:34:33.256Z,0
2016-04-26T03:35:33.244Z,0
2016-04-26T03:36:33.277Z,0
2016-04-26T03:37:33.202Z,0
2016-04-26T03:38:33.174Z,0
2016-04-26T03:39:33.161Z,0
2016-04-26T03:40:33.132Z,0
2016-04-26T03:41:33.150Z,0
2016-04-26T03:42:33.091Z,0
2016-04-26T03:43:33.077Z,0
2016-04-26T03:44:33.065Z,0
2016-04-26T03:45:32.285Z,0
2016-04-26T03:46:33.024Z,0
2016-04-26T03:47:32.729Z,0
2016-04-26T03:48:32.997Z,0
2016-04-26T03:49:32.969Z,0
2016-04-26T03:50:32.924Z,0
2016-04-26T03:51:32.912Z,0
2016-04-26T03:52:32.899Z,0
2016-04-26T03:53:32.870Z,0
2016-04-26T03:54:32.842Z,0
2016-04-26T03:55:32.828Z,0
2016-04-26T03:56:32.815Z,0
2016-04-26T03:57:32.787Z,0
2016-04-26T03:58:32.774Z,0
2016-04-26T03:59:32.746Z,0
2016-04-26T04:00:32.717Z,0
2016-04-26T04:01:32.719Z,0
2016-04-26T04:02:32.520Z,0
2016-04-26T04:03:32.663Z,0
2016-04-26T04:04:31.899Z,0
2016-04-26T04:05:32.622Z,0
2016-04-26T04:06:32.827Z,0
2016-04-26T04:07:32.611Z,0
2016-04-26T04:08:32.567Z,0
2016-04-26T04:09:32.538Z,0
2016-04-26T04:10:32.519Z,0
2016-04-26T04:11:32.491Z,0
2016-04-26T04:12:32.493Z,5
2016-04-26T04:13:32.465Z,5
2016-04-26T04:14:32.452Z,5
2016-04-26T04:15:32.439Z,5
2016-04-26T04:16:32.598Z,5
2016-04-26T04:17:34.101Z,5
2016-04-26T04:18:32.337Z,5
2016-04-26T04:19:32.340Z,5
2016-04-26T04:20:32.515Z,5
2016-04-26T04:21:32.283Z,10
2016-04-26T04:22:32.270Z,10
2016-04-26T04:23:32.258Z,10
2016-04-26T04:24:32.229Z,10
2016-04-26T04:25:32.200Z,10
2016-04-26T04:26:32.172Z,10
2016-04-26T04:27:32.159Z,10
2016-04-26T04:28:32.130Z,15
2016-04-26T04:29:32.117Z,15
2016-04-26T04:30:32.088Z,15
2016-04-26T04:31:31.920Z,15
2016-04-26T04:32:32.861Z,15
2016-04-26T04:33:32.050Z,15
2016-04-26T04:34:32.022Z,15
2016-04-26T04:35:31.977Z,20
2016-04-26T04:36:31.964Z,25
2016-04-26T04:37:31.935Z,25
2016-04-26T04:38:31.923Z,25
2016-04-26T04:39:31.894Z,20
2016-04-26T04:40:31.882Z,20
2016-04-26T04:41:31.868Z,20
2016-04-26T04:42:31.855Z,20
2016-04-26T04:43:31.827Z,20
2016-04-26T04:44:31.798Z,20
2016-04-26T04:45:31.770Z,20
2016-04-26T04:46:31.757Z,25
2016-04-26T04:47:32.165Z,25
2016-04-26T04:48:31.715Z,25
2016-04-26T04:49:31.703Z,25
2016-04-26T04:50:31.876Z,25
2016-04-26T04:51:31.645Z,25
2016-04-26T04:52:31.632Z,30
2016-04-26T04:53:31.619Z,30
2016-04-26T04:54:31.591Z,35
2016-04-26T04:55:31.578Z,40
2016-04-26T04:56:31.549Z,45
2016-04-26T04:57:30.770Z,55
2016-04-26T04:58:31.508Z,55
2016-04-26T04:59:31.511Z,50
2016-04-26T05:00:31.466Z,45
2016-04-26T05:01:31.438Z,40
2016-04-26T05:02:31.941Z,35
2016-04-26T05:03:31.411Z,40
2016-04-26T05:04:31.399Z,40
2016-04-26T05:05:31.371Z,40
2016-04-26T05:06:31.373Z,35
2016-04-26T05:07:31.330Z,35
2016-04-26T05:08:31.315Z,35
2016-04-26T05:09:31.288Z,35
2016-04-26T05:10:31.260Z,35
2016-04-26T05:11:31.246Z,40
2016-04-26T05:12:31.218Z,35
2016-04-26T05:13:31.188Z,40
2016-04-26T05:14:31.176Z,40
2016-04-26T05:15:31.179Z,40
2016-04-26T05:16:31.118Z,45
2016-04-26T05:17:32.840Z,45
2016-04-26T05:18:31.076Z,50
2016-04-26T05:19:31.080Z,50
2016-04-26T05:20:31.052Z,50
2016-04-26T05:21:31.039Z,55
2016-04-26T05:22:31.010Z,60
2016-04-26T05:23:30.981Z,65
2016-04-26T05:24:30.968Z,65
2016-04-26T05:25:30.956Z,60
2016-04-26T05:26:30.927Z,60
2016-04-26T05:27:30.898Z,60
2016-04-26T05:28:30.886Z,60
2016-04-26T05:29:30.857Z,60
2016-04-26T05:30:30.859Z,55
2016-04-26T05:31:30.519Z,50
2016-04-26T05:32:30.709Z,50
2016-04-26T05:33:30.789Z,55
2016-04-26T05:34:30.761Z,55
2016-04-26T05:35:30.748Z,55
2016-04-26T05:36:30.735Z,55
2016-04-26T05:37:30.722Z,60
2016-04-26T05:38:30.693Z,60
2016-04-26T05:39:30.665Z,60
2016-04-26T05:40:30.652Z,60
2016-04-26T05:41:30.607Z,60
2016-04-26T05:42:30.595Z,60
2016-04-26T05:43:30.566Z,60
2016-04-26T05:44:30.569Z,60
2016-04-26T05:45:30.524Z,60
2016-04-26T05:46:30.512Z,65
2016-04-26T05:47:31.186Z,65
2016-04-26T05:48:30.329Z,65
2016-04-26T05:49:30.582Z,65
2016-04-26T05:50:30.429Z,65
2016-04-26T05:51:30.416Z,65
2016-04-26T05:52:30.403Z,65
2016-04-26T05:53:30.390Z,70
2016-04-26T05:54:30.362Z,70
2016-04-26T05:55:30.333Z,70
2016-04-26T05:56:30.336Z,70
2016-04-26T05:57:30.296Z,70
2016-04-26T05:58:36.412Z,70
2016-04-26T05:59:30.102Z,75
2016-04-26T06:00:36.730Z,75
2016-04-26T06:01:35.055Z,75
2016-04-26T06:02:30.480Z,75
2016-04-26T06:03:30.169Z,80
2016-04-26T06:04:30.266Z,85
2016-04-26T06:05:30.129Z,90
2016-04-26T06:06:30.100Z,95
2016-04-26T06:07:30.119Z,100
2016-04-26T06:08:30.074Z,100
2016-04-26T06:09:30.046Z,100
2016-04-26T06:10:30.032Z,105
2016-04-26T06:11:30.004Z,100
2016-04-26T06:12:29.991Z,105
2016-04-26T06:13:29.649Z,105
2016-04-26T06:14:29.980Z,110
2016-04-26T06:15:29.937Z,105
2016-04-26T06:16:29.908Z,115
2016-04-26T06:17:30.755Z,125
2016-04-26T06:18:30.054Z,140
2016-04-26T06:19:29.838Z,155
2016-04-26T06:20:29.856Z,165
2016-04-26T06:21:29.796Z,180
2016-04-26T06:22:29.787Z,180
2016-04-26T06:23:29.758Z,175
2016-04-26T06:24:29.746Z,170
2016-04-26T06:25:29.716Z,170
2016-04-26T06:26:29.704Z,175
2016-04-26T06:27:29.690Z,165
2016-04-26T06:28:29.662Z,155
2016-04-26T06:29:29.649Z,135
2016-04-26T06:30:29.637Z,125
2016-04-26T06:31:29.624Z,115
2016-04-26T06:32:29.954Z,110
2016-04-26T06:33:30.129Z,90
2016-04-26T06:34:29.553Z,85
2016-04-26T06:35:29.540Z,95
2016-04-26T06:36:29.512Z,100
2016-04-26T06:37:29.483Z,100
2016-04-26T06:38:29.470Z,90
2016-04-26T06:39:29.457Z,75
2016-04-26T06:40:29.445Z,65
2016-04-26T06:41:29.416Z,90
2016-04-26T06:42:29.418Z,70
2016-04-26T06:43:29.390Z,65
2016-04-26T06:44:29.361Z,60
2016-04-26T06:45:29.333Z,45
2016-04-26T06:46:29.320Z,50
2016-04-26T06:47:30.385Z,45
2016-04-26T06:48:29.294Z,50
2016-04-26T06:49:29.265Z,50
2016-04-26T06:50:29.252Z,50
2016-04-26T06:51:29.224Z,45
2016-04-26T06:52:29.210Z,45
2016-04-26T06:53:29.182Z,45
2016-04-26T06:54:29.169Z,50
2016-04-26T06:55:29.141Z,45
2016-04-26T06:56:28.971Z,45
2016-04-26T06:57:29.115Z,50
2016-04-26T06:58:29.117Z,60
2016-04-26T06:59:29.073Z,55
2016-04-26T07:00:29.045Z,50
2016-04-26T07:01:29.031Z,40
2016-04-26T07:02:29.284Z,45
2016-04-26T07:03:28.693Z,45
2016-04-26T07:04:28.978Z,40
2016-04-26T07:05:28.949Z,50
2016-04-26T07:06:28.937Z,65
2016-04-26T07:07:28.923Z,115
2016-04-26T07:08:28.926Z,170
2016-04-26T07:09:28.882Z,210
2016-04-26T07:10:28.853Z,185
2016-04-26T07:11:28.840Z,150
2016-04-26T07:12:28.905Z,155
2016-04-26T07:13:28.049Z,130
2016-04-26T07:14:28.802Z,150
2016-04-26T07:15:28.758Z,175
2016-04-26T07:16:28.728Z,205
2016-04-26T07:17:28.731Z,245
2016-04-26T07:18:28.563Z,215
2016-04-26T07:19:28.691Z,185
2016-04-26T07:20:28.677Z,210
2016-04-26T07:21:28.664Z,260
2016-04-26T07:22:28.479Z,310
2016-04-26T07:23:28.596Z,350
2016-04-26T07:24:28.598Z,410
2016-04-26T07:25:28.570Z,395
2016-04-26T07:26:28.542Z,330
2016-04-26T07:27:28.529Z,160
2016-04-26T07:28:28.516Z,95
2016-04-26T07:29:28.487Z,85
2016-04-26T07:30:28.490Z,100
2016-04-26T07:31:28.461Z,100
2016-04-26T07:32:29.839Z,150
2016-04-26T07:33:28.561Z,185
2016-04-26T07:34:28.406Z,220
2016-04-26T07:35:28.379Z,245
2016-04-26T07:36:28.411Z,265
2016-04-26T07:37:28.352Z,235
2016-04-26T07:38:28.356Z,215
2016-04-26T07:39:28.311Z,165
2016-04-26T07:40:28.298Z,110
2016-04-26T07:41:28.285Z,85
2016-04-26T07:42:28.256Z,75
2016-04-26T07:43:28.228Z,65
2016-04-26T07:44:28.246Z,60
2016-04-26T07:45:30.796Z,50
2016-04-26T07:46:28.126Z,60
2016-04-26T07:47:28.083Z,50
2016-04-26T07:48:28.007Z,50
2016-04-26T07:49:28.119Z,60
2016-04-26T07:50:28.107Z,90
2016-04-26T07:51:28.077Z,80
2016-04-26T07:52:28.065Z,75
2016-04-26T07:53:28.068Z,65
2016-04-26T07:54:28.023Z,95
2016-04-26T07:55:28.026Z,100
2016-04-26T07:56:27.997Z,105
2016-04-26T07:57:27.969Z,130
2016-04-26T07:58:27.972Z,210
2016-04-26T07:59:27.943Z,250
2016-04-26T08:00:27.915Z,185
2016-04-26T08:01:28.011Z,215
2016-04-26T08:02:27.888Z,380
2016-04-26T08:03:27.485Z,330
2016-04-26T08:04:27.831Z,250
2016-04-26T08:05:27.818Z,200
2016-04-26T08:06:27.820Z,225
2016-04-26T08:07:27.792Z,290
2016-04-26T08:08:27.780Z,215
2016-04-26T08:09:27.767Z,210
2016-04-26T08:10:27.723Z,220
2016-04-26T08:11:27.709Z,155
2016-04-26T08:12:27.712Z,90
2016-04-26T08:13:27.700Z,95
2016-04-26T08:14:27.639Z,115
2016-04-26T08:15:27.658Z,85
2016-04-26T08:16:27.613Z,85
2016-04-26T08:17:27.600Z,105
2016-04-26T08:18:28.932Z,105
2016-04-26T08:19:27.575Z,95
2016-04-26T08:20:27.547Z,145
2016-04-26T08:21:27.565Z,105
2016-04-26T08:22:27.521Z,150
2016-04-26T08:23:27.477Z,230
2016-04-26T08:24:27.479Z,185
2016-04-26T08:25:27.435Z,265
2016-04-26T08:26:27.437Z,275
2016-04-26T08:27:27.409Z,230
2016-04-26T08:28:27.552Z,265
2016-04-26T08:29:27.389Z,285
2016-04-26T08:30:27.364Z,280
2016-04-26T08:31:27.377Z,1415
2016-04-26T08:32:27.391Z,1800
2016-04-26T08:33:28.013Z,380
2016-04-26T08:34:27.464Z,325
2016-04-26T08:35:27.413Z,715
2016-04-26T08:36:27.477Z,2340
2016-04-26T08:37:27.479Z,310
2016-04-26T08:38:27.451Z,275
2016-04-26T08:39:27.469Z,335
2016-04-26T08:40:27.453Z,1350
2016-04-26T08:41:27.462Z,330
2016-04-26T08:42:27.439Z,305
2016-04-26T08:43:27.430Z,330
2016-04-26T08:44:27.408Z,235
2016-04-26T08:45:27.416Z,260
2016-04-26T08:46:27.389Z,215
2016-04-26T08:47:27.377Z,225
2016-04-26T08:48:28.242Z,230
2016-04-26T08:49:27.387Z,350
2016-04-26T08:50:27.330Z,1185
2016-04-26T08:51:27.317Z,1035
2016-04-26T08:52:32.820Z,440
2016-04-26T08:53:27.277Z,395
2016-04-26T08:54:27.266Z,1665
2016-04-26T08:55:27.253Z,360
2016-04-26T08:56:27.240Z,205
2016-04-26T08:57:29.228Z,315
2016-04-26T08:58:27.201Z,385
2016-04-26T08:59:27.188Z,1235
2016-04-26T09:00:27.190Z,1200
2016-04-26T09:01:27.162Z,350
2016-04-26T09:02:29.445Z,355
2016-04-26T09:03:27.543Z,505
2016-04-26T09:04:27.107Z,515
2016-04-26T09:05:27.109Z,310
2016-04-26T09:06:27.082Z,240
2016-04-26T09:07:30.818Z,275
2016-04-26T09:08:27.040Z,260
2016-04-26T09:09:27.026Z,260
2016-04-26T09:10:27.076Z,430
2016-04-26T09:11:27.064Z,500
2016-04-26T09:12:27.004Z,405
2016-04-26T09:13:26.975Z,360
2016-04-26T09:14:26.962Z,1060
2016-04-26T09:15:26.949Z,905
2016-04-26T09:16:26.920Z,1170
2016-04-26T09:17:26.923Z,545
2016-04-26T09:18:26.692Z,455
2016-04-26T09:19:26.882Z,840
2016-04-26T09:20:26.869Z,405
2016-04-26T09:21:26.856Z,1185
2016-04-26T09:22:26.844Z,505
2016-04-26T09:23:26.814Z,1590
2016-04-26T09:24:26.801Z,440
2016-04-26T09:25:26.805Z,1065
2016-04-26T09:26:26.807Z,690
2016-04-26T09:27:26.763Z,325
2016-04-26T09:28:26.750Z,460
2016-04-26T09:29:26.768Z,335
2016-04-26T09:30:26.755Z,230
2016-04-26T09:31:26.710Z,185
2016-04-26T09:32:26.698Z,230
2016-04-26T09:33:29.263Z,290
2016-04-26T09:34:26.673Z,1035
2016-04-26T09:35:26.675Z,650
2016-04-26T09:36:26.632Z,795
2016-04-26T09:37:26.634Z,595
2016-04-26T09:38:26.604Z,1345
2016-04-26T09:39:26.607Z,1230
2016-04-26T09:40:26.579Z,615
2016-04-26T09:41:26.582Z,975
2016-04-26T09:42:26.584Z,785
2016-04-26T09:43:26.540Z,400
2016-04-26T09:44:26.543Z,760
2016-04-26T09:45:26.530Z,930
2016-04-26T09:46:26.517Z,1510
2016-04-26T09:47:26.488Z,1085
2016-04-26T09:48:26.881Z,540
2016-04-26T09:49:28.822Z,1200
2016-04-26T09:50:26.497Z,305
2016-04-26T09:51:26.453Z,1265
2016-04-26T09:52:26.439Z,650
2016-04-26T09:53:26.427Z,580
2016-04-26T09:54:28.008Z,395
2016-04-26T09:55:26.417Z,225
2016-04-26T09:56:26.387Z,150
2016-04-26T09:57:26.374Z,160
2016-04-26T09:58:26.362Z,145
2016-04-26T09:59:26.349Z,180
2016-04-26T10:00:26.336Z,180
2016-04-26T10:01:26.338Z,110
2016-04-26T10:02:26.341Z,125
2016-04-26T10:03:26.016Z,195
2016-04-26T10:04:26.159Z,305
2016-04-26T10:05:27.271Z,480
2016-04-26T10:06:26.259Z,580
2016-04-26T10:07:26.230Z,650
2016-04-26T10:08:26.248Z,1255
2016-04-26T10:09:26.220Z,565
2016-04-26T10:10:26.222Z,915
2016-04-26T10:11:26.226Z,330
2016-04-26T10:12:26.165Z,1190
2016-04-26T10:13:29.121Z,565
2016-04-26T10:14:26.155Z,480
2016-04-26T10:15:26.142Z,1150
2016-04-26T10:16:26.160Z,1075
2016-04-26T10:17:26.117Z,1140
2016-04-26T10:18:26.072Z,1290
2016-04-26T10:19:26.090Z,490
2016-04-26T10:20:26.078Z,1605
2016-04-26T10:21:26.080Z,330
2016-04-26T10:22:26.082Z,700
2016-04-26T10:23:26.039Z,1905
2016-04-26T10:24:26.042Z,470
2016-04-26T10:25:26.012Z,250
2016-04-26T10:26:26.000Z,205
2016-04-26T10:27:26.003Z,230
2016-04-26T10:28:25.989Z,270
2016-04-26T10:29:25.961Z,205
2016-04-26T10:30:25.948Z,165
2016-04-26T10:31:25.936Z,160
2016-04-26T10:32:25.938Z,155
2016-04-26T10:33:26.457Z,125
2016-04-26T10:34:26.397Z,180
2016-04-26T10:35:26.618Z,245
2016-04-26T10:36:25.870Z,280
2016-04-26T10:37:25.858Z,240
2016-04-26T10:38:25.844Z,310
2016-04-26T10:39:25.816Z,305
2016-04-26T10:40:25.803Z,250
2016-04-26T10:41:25.806Z,155
2016-04-26T10:42:25.792Z,85
2016-04-26T10:43:25.779Z,65
2016-04-26T10:44:25.767Z,65
2016-04-26T10:45:25.754Z,135
2016-04-26T10:46:25.709Z,220
2016-04-26T10:47:25.697Z,230
2016-04-26T10:48:26.231Z,240
2016-04-26T10:49:25.670Z,250
2016-04-26T10:50:25.659Z,250
2016-04-26T10:51:25.645Z,255
2016-04-26T10:52:25.632Z,255
2016-04-26T10:53:25.603Z,235
2016-04-26T10:54:25.606Z,200
2016-04-26T10:55:25.780Z,170
2016-04-26T10:56:25.565Z,195
2016-04-26T10:57:25.552Z,225
2016-04-26T10:58:25.524Z,240
2016-04-26T10:59:25.510Z,280
2016-04-26T11:00:25.497Z,280
2016-04-26T11:01:25.500Z,305
2016-04-26T11:02:25.472Z,370
2016-04-26T11:03:25.569Z,445
2016-04-26T11:04:25.805Z,395
2016-04-26T11:05:25.417Z,265
2016-04-26T11:06:25.389Z,170
2016-04-26T11:07:25.360Z,125
2016-04-26T11:08:25.363Z,105
2016-04-26T11:09:25.350Z,100
2016-04-26T11:10:25.321Z,100
2016-04-26T11:11:25.309Z,105
2016-04-26T11:12:25.279Z,125
2016-04-26T11:13:25.268Z,135
2016-04-26T11:14:25.238Z,145
2016-04-26T11:15:25.241Z,160
2016-04-26T11:16:25.228Z,180
2016-04-26T11:17:25.200Z,180
2016-04-26T11:18:25.968Z,180
2016-04-26T11:19:26.267Z,160
2016-04-26T11:20:25.145Z,160
2016-04-26T11:21:25.132Z,140
2016-04-26T11:22:25.119Z,140
2016-04-26T11:23:25.122Z,105
2016-04-26T11:24:25.094Z,70
2016-04-26T11:25:25.065Z,55
2016-04-26T11:26:25.052Z,40
2016-04-26T11:27:25.039Z,30
2016-04-26T11:28:25.026Z,20
2016-04-26T11:29:24.998Z,10
2016-04-26T11:30:24.969Z,10
2016-04-26T11:31:24.956Z,10
2016-04-26T11:32:25.005Z,15
2016-04-26T11:33:25.477Z,15
2016-04-26T11:34:26.777Z,15
2016-04-26T11:35:24.889Z,15
2016-04-26T11:36:24.907Z,15
2016-04-26T11:37:24.846Z,10
2016-04-26T11:38:24.835Z,15
2016-04-26T11:39:25.727Z,25
2016-04-26T11:40:24.808Z,60
2016-04-26T11:41:24.780Z,115
2016-04-26T11:42:24.767Z,215
2016-04-26T11:43:24.784Z,295
2016-04-26T11:44:24.725Z,415
2016-04-26T11:45:24.307Z,545
2016-04-26T11:46:24.699Z,705
2016-04-26T11:47:24.671Z,2140
2016-04-26T11:48:25.127Z,780
2016-04-26T11:49:24.364Z,430
2016-04-26T11:50:24.617Z,240
2016-04-26T11:51:24.619Z,210
2016-04-26T11:52:24.590Z,185
2016-04-26T11:53:24.593Z,165
2016-04-26T11:54:24.565Z,150
2016-04-26T11:55:24.553Z,170
2016-04-26T11:56:24.523Z,185
2016-04-26T11:57:24.510Z,200
2016-04-26T11:58:24.481Z,180
2016-04-26T11:59:24.469Z,160
2016-04-26T12:00:24.455Z,135
2016-04-26T12:01:24.427Z,105
2016-04-26T12:02:24.414Z,60
2016-04-26T12:03:24.730Z,35
2016-04-26T12:04:24.935Z,25
2016-04-26T12:05:24.360Z,20
2016-04-26T12:06:24.347Z,45
2016-04-26T12:07:24.335Z,100
2016-04-26T12:08:24.305Z,75
2016-04-26T12:09:24.277Z,50
2016-04-26T12:10:24.248Z,30
2016-04-26T12:11:24.252Z,20
2016-04-26T12:12:24.254Z,15
2016-04-26T12:13:24.209Z,15
2016-04-26T12:14:24.181Z,15
2016-04-26T12:15:24.168Z,30
2016-04-26T12:16:24.170Z,75
2016-04-26T12:17:24.127Z,90
2016-04-26T12:18:24.270Z,105
2016-04-26T12:19:25.101Z,75
2016-04-26T12:20:24.072Z,80
2016-04-26T12:21:24.059Z,120
2016-04-26T12:22:24.030Z,105
2016-04-26T12:23:24.017Z,125
2016-04-26T12:24:24.005Z,135
2016-04-26T12:25:23.992Z,275
2016-04-26T12:26:23.978Z,520
2016-04-26T12:27:23.966Z,1500
2016-04-26T12:28:23.937Z,1305
2016-04-26T12:29:23.925Z,460
2016-04-26T12:30:23.896Z,345
2016-04-26T12:31:23.883Z,220
2016-04-26T12:32:23.855Z,150
2016-04-26T12:33:24.122Z,130
2016-04-26T12:34:24.516Z,125
2016-04-26T12:35:24.002Z,120
2016-04-26T12:36:23.772Z,105
2016-04-26T12:37:23.774Z,75
2016-04-26T12:38:23.746Z,50
2016-04-26T12:39:23.733Z,25
2016-04-26T12:40:23.719Z,15
2016-04-26T12:41:23.707Z,10
2016-04-26T12:42:23.694Z,10
2016-04-26T12:43:23.650Z,15
2016-04-26T12:44:23.637Z,30
2016-04-26T12:45:23.623Z,50
2016-04-26T12:46:23.596Z,65
2016-04-26T12:47:23.583Z,105
2016-04-26T12:48:23.460Z,125
2016-04-26T12:49:24.743Z,165
2016-04-26T12:50:23.529Z,190
2016-04-26T12:51:23.499Z,210
2016-04-26T12:52:23.502Z,215
2016-04-26T12:53:23.473Z,215
2016-04-26T12:54:23.461Z,220
2016-04-26T12:55:23.432Z,235
2016-04-26T12:56:23.403Z,240
2016-04-26T12:57:23.390Z,275
2016-04-26T12:58:23.378Z,275
2016-04-26T12:59:23.490Z,285
2016-04-26T13:00:23.336Z,325
2016-04-26T13:01:23.339Z,370
2016-04-26T13:02:23.295Z,430
2016-04-26T13:03:23.281Z,505
2016-04-26T13:04:25.738Z,520
2016-04-26T13:05:23.256Z,450
2016-04-26T13:06:23.243Z,450
2016-04-26T13:07:23.214Z,450
2016-04-26T13:08:23.201Z,465
2016-04-26T13:09:23.173Z,520
2016-04-26T13:10:23.160Z,570
2016-04-26T13:11:23.146Z,715
2016-04-26T13:12:23.134Z,900
2016-04-26T13:13:23.122Z,1060
2016-04-26T13:14:23.076Z,1275
2016-04-26T13:15:23.063Z,1590
2016-04-26T13:16:23.066Z,1950
2016-04-26T13:17:23.043Z,1245
2016-04-26T13:18:23.029Z,840
2016-04-26T13:19:23.330Z,2435
2016-04-26T13:20:23.004Z,3170
2016-04-26T13:21:22.975Z,1580
2016-04-26T13:22:22.963Z,1495
2016-04-26T13:23:22.950Z,2885
2016-04-26T13:24:22.921Z,1845
2016-04-26T13:25:22.909Z,1150
2016-04-26T13:26:22.926Z,1070
2016-04-26T13:27:22.898Z,490
2016-04-26T13:28:22.885Z,375
2016-04-26T13:29:22.872Z,265
2016-04-26T13:30:22.859Z,185
2016-04-26T13:31:22.862Z,205
2016-04-26T13:32:22.880Z,250
2016-04-26T13:33:22.820Z,285
2016-04-26T13:34:24.463Z,185
2016-04-26T13:35:22.794Z,210
2016-04-26T13:36:22.783Z,215
2016-04-26T13:37:22.753Z,235
2016-04-26T13:38:22.772Z,230
2016-04-26T13:39:22.759Z,235
2016-04-26T13:40:22.730Z,160
2016-04-26T13:41:22.702Z,130
2016-04-26T13:42:22.704Z,85
2016-04-26T13:43:22.676Z,85
2016-04-26T13:44:22.679Z,130
2016-04-26T13:45:22.649Z,205
2016-04-26T13:46:22.652Z,335
2016-04-26T13:47:22.483Z,530
2016-04-26T13:48:22.595Z,485
2016-04-26T13:49:23.363Z,390
2016-04-26T13:50:22.585Z,320
2016-04-26T13:51:22.759Z,355
2016-04-26T13:52:22.544Z,365
2016-04-26T13:53:22.531Z,450
2016-04-26T13:54:22.502Z,285
2016-04-26T13:55:22.487Z,225
2016-04-26T13:56:22.474Z,205
2016-04-26T13:57:22.445Z,180
2016-04-26T13:58:22.448Z,255
2016-04-26T13:59:22.450Z,330
2016-04-26T14:00:22.422Z,310
2016-04-26T14:01:22.237Z,310
2016-04-26T14:02:22.365Z,305
2016-04-26T14:03:22.367Z,320
2016-04-26T14:04:22.761Z,315
2016-04-26T14:05:22.326Z,315
2016-04-26T14:06:22.313Z,310
2016-04-26T14:07:22.300Z,320
2016-04-26T14:08:22.287Z,320
2016-04-26T14:09:22.258Z,335